State Rd, North Carolina
Current Conditions -  °F | °C
As of 1:15 AM on Friday 19 Dec 2014 (Local Time) from KUKF Reporting Station
Broken Clouds Broken Clouds  
Wind Chill: 39°   Ceiling: 5000
Heat Index: 39°   Visibility: 10mi
Dew Point: 30°   Wind: 0mph
Humidity: 70%   Direction: NA
Pressure: 30.14"   Gusts: NA
Location:  36.3943°N, 80.8906°W
Report Text: KUKF 190615Z AUTO 00000KT 10SM BKN050 04/M01 A3014 RMK AO2
Loading
Personal Weather Stations






























Interactive Weather Map New forecast layout! Learn more

10-Day Weather Forecast

Advertisements
Track Severe Weather on mobile